createdAt,value
2018-04-16T00:05:50.589Z,4.75
2018-04-16T00:11:41.476Z,5.56
2018-04-16T00:17:32.323Z,4.68
2018-04-16T00:23:23.205Z,4.78
2018-04-16T00:29:14.030Z,4.93
2018-04-16T00:35:04.914Z,5.59
2018-04-16T00:40:55.794Z,4.58
2018-04-16T00:46:46.678Z,5.05
2018-04-16T00:52:37.552Z,4.9
2018-04-16T00:58:28.407Z,5.45
2018-04-16T01:04:19.302Z,4.59
2018-04-16T01:10:10.167Z,4.65
2018-04-16T01:16:01.025Z,4.47
2018-04-16T01:21:51.899Z,5.49
2018-04-16T01:27:42.759Z,5.26
2018-04-16T01:33:33.638Z,5.04
2018-04-16T01:39:24.535Z,4.24
2018-04-16T01:45:15.390Z,5.3
2018-04-16T01:51:06.270Z,4.71
2018-04-16T01:56:57.111Z,4.8
2018-04-16T02:02:48.015Z,4.54
2018-04-16T02:08:38.878Z,4.75
2018-04-16T02:14:29.737Z,3.6
2018-04-16T02:20:20.623Z,3.99
2018-04-16T02:26:11.437Z,5.53
2018-04-16T02:32:02.354Z,4.44
2018-04-16T02:37:53.188Z,5.09
2018-04-16T02:43:44.089Z,5.36
2018-04-16T02:49:34.997Z,4.73
2018-04-16T02:55:25.797Z,4.01
2018-04-16T03:01:16.692Z,4.28
2018-04-16T03:07:07.578Z,4.03
2018-04-16T03:12:58.429Z,4.15
2018-04-16T03:18:49.344Z,3.66
2018-04-16T03:24:40.190Z,4.68
2018-04-16T03:30:31.058Z,4.57
2018-04-16T03:36:21.898Z,3.68
2018-04-16T03:42:12.764Z,4.8
2018-04-16T03:48:03.624Z,4.28
2018-04-16T03:53:54.560Z,4.17
2018-04-16T03:59:45.395Z,4.21
2018-04-16T04:05:36.224Z,4.99
2018-04-16T04:11:27.097Z,4.91
2018-04-16T04:17:17.962Z,4.18
2018-04-16T04:23:08.873Z,4.56
2018-04-16T04:28:59.656Z,4.85
2018-04-16T04:34:50.668Z,5
2018-04-16T04:40:41.486Z,5.11
2018-04-16T04:46:32.380Z,4.74
2018-04-16T04:52:23.244Z,6.19
2018-04-16T04:58:14.092Z,8.18
2018-04-16T05:04:05.022Z,9.64
2018-04-16T05:09:55.813Z,9.96
2018-04-16T05:15:46.645Z,8.87
2018-04-16T05:21:37.524Z,9.79
2018-04-16T05:27:28.395Z,8.58
2018-04-16T05:33:19.262Z,9.78
2018-04-16T05:39:10.124Z,9.13
2018-04-16T05:45:00.963Z,10.27
2018-04-16T05:50:51.797Z,11.56
2018-04-16T05:56:42.660Z,9.36
2018-04-16T06:02:33.559Z,8.37
2018-04-16T06:08:24.412Z,8.1
2018-04-16T06:14:15.301Z,7.55
2018-04-16T06:20:06.148Z,8.76
2018-04-16T06:25:57.024Z,7.49
2018-04-16T06:31:47.903Z,7.69
2018-04-16T06:37:38.757Z,7.1
2018-04-16T06:43:29.638Z,6.13
2018-04-16T06:49:20.509Z,7.53
2018-04-16T06:55:11.365Z,8.07
2018-04-16T07:01:02.260Z,7.47
2018-04-16T07:06:53.072Z,7.13
2018-04-16T07:12:43.989Z,5.82
2018-04-16T07:18:34.844Z,6.4
2018-04-16T07:24:25.775Z,6.06
2018-04-16T07:30:16.617Z,5.33
2018-04-16T07:36:07.439Z,5.84
2018-04-16T07:41:58.289Z,4.85
2018-04-16T07:47:49.214Z,4.38
2018-04-16T07:53:40.057Z,5.45
2018-04-16T07:59:30.956Z,5.78
2018-04-16T08:05:21.773Z,6.63
2018-04-16T08:11:12.688Z,12.81
2018-04-16T08:17:03.564Z,12.11
2018-04-16T08:22:54.444Z,17.78
2018-04-16T08:28:45.341Z,19.64
2018-04-16T08:34:36.189Z,33.86
2018-04-16T08:40:27.079Z,37.14
2018-04-16T08:46:17.912Z,45.12
2018-04-16T08:52:08.801Z,41.94
2018-04-16T08:57:59.712Z,38.6
2018-04-16T09:03:50.534Z,26.03
2018-04-16T09:09:41.392Z,26.15
2018-04-16T09:15:32.315Z,27.67
2018-04-16T09:21:23.186Z,33.28
2018-04-16T09:27:14.044Z,30.91
2018-04-16T09:33:04.959Z,27.3
2018-04-16T09:38:55.755Z,20.74
2018-04-16T09:44:46.657Z,24.29
2018-04-16T09:50:37.611Z,24.4
2018-04-16T09:56:28.441Z,33.64
2018-04-16T10:02:19.274Z,34.61
2018-04-16T10:08:10.222Z,27.31
2018-04-16T10:14:01.063Z,32.44
2018-04-16T10:19:51.925Z,51.15
2018-04-16T10:25:42.867Z,54.99
2018-04-16T10:31:33.810Z,41.05
2018-04-16T10:37:24.607Z,61.39
2018-04-16T10:43:15.564Z,65.42
2018-04-16T10:49:06.406Z,96.91
2018-04-16T10:54:57.289Z,79.46
2018-04-16T11:00:48.216Z,79.2
2018-04-16T11:06:39.085Z,114.04
2018-04-16T11:12:29.969Z,91.26
2018-04-16T11:18:20.878Z,65.32
2018-04-16T11:24:11.777Z,62.25
2018-04-16T11:30:02.693Z,70.61
2018-04-16T11:35:53.594Z,100.42
2018-04-16T11:41:44.497Z,117.02
2018-04-16T11:47:35.450Z,111.06
2018-04-16T11:53:26.316Z,72.61
2018-04-16T11:59:17.219Z,54.23
2018-04-16T12:05:08.161Z,57.02
2018-04-16T12:10:59.099Z,53.37
2018-04-16T12:16:50.022Z,48.54
2018-04-16T12:22:40.996Z,37.13
2018-04-16T12:28:31.829Z,37.83
2018-04-16T12:34:22.775Z,32.71
2018-04-16T12:40:13.724Z,33.11
2018-04-16T12:46:04.655Z,30.52
2018-04-16T12:51:55.540Z,28
2018-04-16T12:57:46.510Z,23.42
2018-04-16T13:03:37.444Z,22.45
2018-04-16T13:09:28.354Z,19.52
2018-04-16T13:15:19.337Z,19.61
2018-04-16T13:21:10.251Z,17.49
2018-04-16T13:27:01.179Z,17.12
2018-04-16T13:32:52.091Z,17.29
2018-04-16T13:38:43.016Z,14.82
2018-04-16T13:44:33.928Z,16.77
2018-04-16T13:50:24.871Z,15.46
2018-04-16T13:56:15.803Z,13.9
2018-04-16T14:02:06.772Z,14.88
2018-04-16T14:07:57.720Z,17.63
2018-04-16T14:13:48.607Z,15.69
2018-04-16T14:19:39.537Z,14.18
2018-04-16T14:25:30.514Z,29.34
2018-04-16T14:31:21.387Z,37.13
2018-04-16T14:37:12.332Z,49
2018-04-16T14:43:03.236Z,49.44
2018-04-16T14:48:54.192Z,51.77
2018-04-16T14:54:45.127Z,52.27
2018-04-16T15:00:36.186Z,50.59
2018-04-16T15:06:27.001Z,47.01
2018-04-16T15:12:17.946Z,37.91
2018-04-16T15:18:08.784Z,30.2
2018-04-16T15:23:59.728Z,29.66
2018-04-16T15:29:50.597Z,26.78
2018-04-16T15:35:41.517Z,30.25
2018-04-16T15:41:32.430Z,31.53
2018-04-16T15:47:23.396Z,47.22
2018-04-16T15:53:14.303Z,39.35
2018-04-16T15:59:05.190Z,38.24
2018-04-16T16:04:56.090Z,27.09
2018-04-16T16:10:47.010Z,18.53
2018-04-16T16:16:37.986Z,9.52
2018-04-16T16:22:28.831Z,10.49
2018-04-16T16:28:19.708Z,9.03
2018-04-16T16:34:10.613Z,7.48
2018-04-16T16:40:01.541Z,6.87
2018-04-16T16:45:52.480Z,7.02
2018-04-16T16:51:43.371Z,7.45
2018-04-16T16:57:34.254Z,6.47
2018-04-16T17:03:25.169Z,7.4
2018-04-16T17:09:16.069Z,6.04
2018-04-16T17:15:06.974Z,6.93
2018-04-16T17:20:57.894Z,5.81
2018-04-16T17:26:48.777Z,10.97
2018-04-16T17:32:39.646Z,6.55
2018-04-16T17:38:30.648Z,6.56
2018-04-16T17:44:21.479Z,6.05
2018-04-16T17:50:12.357Z,7.06
2018-04-16T17:56:03.272Z,7.17
2018-04-16T18:01:54.163Z,7.16
2018-04-16T18:07:45.081Z,9.41
2018-04-16T18:13:35.921Z,7.49
2018-04-16T18:19:26.914Z,7.17
2018-04-16T18:25:17.775Z,6.51
2018-04-16T18:31:08.655Z,6.05
2018-04-16T18:36:59.561Z,7.16
2018-04-16T18:42:50.426Z,5.38
2018-04-16T18:48:41.330Z,5.95
2018-04-16T18:54:32.186Z,7.94
2018-04-16T19:00:23.111Z,6.26
2018-04-16T19:06:14.008Z,6.49
2018-04-16T19:12:05.078Z,7.44
2018-04-16T19:17:55.800Z,6.43
2018-04-16T19:23:46.686Z,6.88
2018-04-16T19:29:37.620Z,6.57
2018-04-16T19:35:28.490Z,6.57
2018-04-16T19:41:19.389Z,6.5
2018-04-16T19:47:10.267Z,7.51
2018-04-16T19:53:01.157Z,6.29
2018-04-16T19:58:52.064Z,6.12
2018-04-16T20:04:42.931Z,6.67
2018-04-16T20:10:33.809Z,6.35
2018-04-16T20:16:24.751Z,6.33
2018-04-16T20:22:15.650Z,7.4
2018-04-16T20:28:06.548Z,7.05
2018-04-16T20:33:57.408Z,6.74
2018-04-16T20:39:48.373Z,5.25
2018-04-16T20:45:39.191Z,5.7
2018-04-16T20:51:30.122Z,5.91
2018-04-16T20:57:21.075Z,5.99
2018-04-16T21:03:11.916Z,6.96
2018-04-16T21:09:02.822Z,6.53
2018-04-16T21:14:53.735Z,5.28
2018-04-16T21:20:44.628Z,5.78
2018-04-16T21:26:35.497Z,5.36
2018-04-16T21:32:26.365Z,5.92
2018-04-16T21:38:17.293Z,4.98
2018-04-16T21:44:08.173Z,5.05
2018-04-16T21:49:59.031Z,5.56
2018-04-16T21:55:49.936Z,6.36
2018-04-16T22:01:40.866Z,5.81
2018-04-16T22:07:31.753Z,7.09
2018-04-16T22:13:22.566Z,7.75
2018-04-16T22:19:13.472Z,7.49
2018-04-16T22:25:04.351Z,7.67
2018-04-16T22:30:55.270Z,8.5
2018-04-16T22:36:46.090Z,6.89
2018-04-16T22:42:37.033Z,7.7
2018-04-16T22:48:27.888Z,7.34
2018-04-16T22:54:18.796Z,7.07
2018-04-16T23:00:09.681Z,6.38
2018-04-16T23:06:00.545Z,5.9
2018-04-16T23:11:51.416Z,7.02
2018-04-16T23:17:42.330Z,5.54
2018-04-16T23:23:33.204Z,6.1
2018-04-16T23:29:24.082Z,5.61
2018-04-16T23:35:14.986Z,6.22
2018-04-16T23:41:05.817Z,6.28
2018-04-16T23:46:56.787Z,5.64
2018-04-16T23:52:47.697Z,5.96
2018-04-16T23:58:38.512Z,5.6
